< Cyclone 197603 1976 Season Cyclone 197606 >
Cyclone 197604 (SUE)
General InformationTrack Information on Google Maps || ResourceGoogle EarthGE AnimationAtom FeedGeoJSON
Detalied Best Track (Time Zone = UTC)
Year Month Day Hour Lat. Long. Pressure (hPa) Wind (kt) Class Image Chart
1975 12 12 00 -9.2 100.5 1004 0 0 -- --
1975 12 12 03 -9.3 100.9 1003 0 0 -- --
1975 12 12 06 -9.3 101.2 1002 0 0 -- --
1975 12 12 09 -9.4 101.5 1002 0 0 -- --
1975 12 12 12 -9.6 101.8 1002 0 0 -- --
1975 12 12 15 -9.8 102.2 1002 0 0 -- --
1975 12 12 18 -9.9 102.5 1002 0 0 -- --
1975 12 12 21 -10.0 102.8 1002 0 0 -- --
1975 12 13 00 -10.1 103.0 1001 0 0 -- --
1975 12 13 03 -10.2 103.3 1001 0 0 -- --
1975 12 13 06 -10.3 103.5 1001 0 0 -- --
1975 12 13 09 -10.4 103.8 1001 0 0 -- --
1975 12 13 12 -10.5 104.0 1001 0 0 -- --
1975 12 13 15 -10.6 104.3 1000 0 0 -- --
1975 12 13 18 -10.7 104.5 998 0 0 -- --
1975 12 13 21 -10.8 104.7 996 0 0 -- --
1975 12 14 00 -10.9 105.0 994 0 0 -- --
1975 12 14 03 -11.1 105.6 994 0 0 -- --
1975 12 14 06 -11.3 106.3 994 0 0 -- --
1975 12 14 09 -11.3 106.9 995 0 0 -- --
1975 12 14 12 -11.3 107.5 998 0 0 -- --
1975 12 14 15 -11.2 108.2 1001 0 0 -- --
1975 12 14 18 -11.1 108.6 1000 0 0 -- --
1975 12 14 21 -10.9 109.3 1001 0 0 -- --
1975 12 15 00 -10.8 110.0 1003 0 0 -- --
1975 12 15 03 -10.4 110.8 1003 0 0 -- --
1975 12 15 06 -10.2 111.7 1002 0 0 -- --
1975 12 15 09 -10.1 112.6 1003 0 0 -- --
1975 12 15 12 -10.1 113.6 1004 0 0 -- --
1975 12 15 15 -10.2 114.6 1005 0 0 -- --
1975 12 15 18 -10.7 115.6 1004 0 0 -- --
1975 12 15 21 -11.2 116.8 1004 0 0 -- --
1975 12 16 00 -11.4 118.0 1005 0 0 -- --
< Cyclone 197603 1976 Season Cyclone 197606 >

Help